createdAt,value
2018-09-10T00:00:10.353Z,13.16
2018-09-10T00:01:10.581Z,13.30
2018-09-10T00:02:10.819Z,13.20
2018-09-10T00:03:11.038Z,13.18
2018-09-10T00:04:11.266Z,13.13
2018-09-10T00:05:11.494Z,13.01
2018-09-10T00:06:11.722Z,13.05
2018-09-10T00:07:11.947Z,12.93
2018-09-10T00:08:12.175Z,12.82
2018-09-10T00:09:12.404Z,12.97
2018-09-10T00:10:12.634Z,12.95
2018-09-10T00:11:12.863Z,12.80
2018-09-10T00:12:13.090Z,12.65
2018-09-10T00:13:13.319Z,12.62
2018-09-10T00:14:13.547Z,12.62
2018-09-10T00:15:13.780Z,12.65
2018-09-10T00:16:14.006Z,12.72
2018-09-10T00:17:14.235Z,12.82
2018-09-10T00:18:14.465Z,12.86
2018-09-10T00:19:14.690Z,12.86
2018-09-10T00:20:14.920Z,12.94
2018-09-10T00:21:15.147Z,12.86
2018-09-10T00:22:15.376Z,12.75
2018-09-10T00:23:16.615Z,12.75
2018-09-10T00:24:15.848Z,12.75
2018-09-10T00:25:16.070Z,12.67
2018-09-10T00:26:16.296Z,12.65
2018-09-10T00:27:16.525Z,12.79
2018-09-10T00:28:16.754Z,12.76
2018-09-10T00:29:16.976Z,12.70
2018-09-10T00:30:17.204Z,12.78
2018-09-10T00:31:17.433Z,12.70
2018-09-10T00:32:17.660Z,12.78
2018-09-10T00:33:17.884Z,12.72
2018-09-10T00:34:18.113Z,12.75
2018-09-10T00:35:18.343Z,12.78
2018-09-10T00:36:18.568Z,12.75
2018-09-10T00:37:18.797Z,12.85
2018-09-10T00:38:19.026Z,12.86
2018-09-10T00:39:19.252Z,12.73
2018-09-10T00:40:19.483Z,12.78
2018-09-10T00:41:19.705Z,12.76
2018-09-10T00:42:19.935Z,12.78
2018-09-10T00:43:20.161Z,12.73
2018-09-10T00:44:20.391Z,12.82
2018-09-10T00:45:20.618Z,12.70
2018-09-10T00:46:20.845Z,12.73
2018-09-10T00:47:21.075Z,12.79
2018-09-10T00:48:21.303Z,12.72
2018-09-10T00:49:21.528Z,12.75
2018-09-10T00:50:21.757Z,12.75
2018-09-10T00:51:21.983Z,12.67
2018-09-10T00:52:22.209Z,12.67
2018-09-10T00:53:22.438Z,12.64
2018-09-10T00:54:22.668Z,12.67
2018-09-10T00:55:22.895Z,12.60
2018-09-10T00:56:23.121Z,12.53
2018-09-10T00:57:23.351Z,12.60
2018-09-10T00:58:23.576Z,12.45
2018-09-10T00:59:23.806Z,12.42
2018-09-10T01:00:24.030Z,12.40
2018-09-10T01:01:24.265Z,12.31
2018-09-10T01:02:24.486Z,12.21
2018-09-10T01:03:24.713Z,12.22
2018-09-10T01:04:24.942Z,12.12
2018-09-10T01:05:25.171Z,12.15
2018-09-10T01:06:25.399Z,12.04
2018-09-10T01:07:25.625Z,12.17
2018-09-10T01:08:25.852Z,12.03
2018-09-10T01:09:26.079Z,12.03
2018-09-10T01:10:26.308Z,11.99
2018-09-10T01:11:26.532Z,12.03
2018-09-10T01:12:26.761Z,12.00
2018-09-10T01:13:26.995Z,12.00
2018-09-10T01:14:27.218Z,12.03
2018-09-10T01:15:27.442Z,12.04
2018-09-10T01:16:27.671Z,12.07
2018-09-10T01:17:27.898Z,12.13
2018-09-10T01:18:28.125Z,12.03
2018-09-10T01:19:28.354Z,12.06
2018-09-10T01:20:28.579Z,12.02
2018-09-10T01:21:28.808Z,12.06
2018-09-10T01:22:29.041Z,11.84
2018-09-10T01:23:29.265Z,11.81
2018-09-10T01:24:29.489Z,11.77
2018-09-10T01:25:29.714Z,11.81
2018-09-10T01:26:29.940Z,11.77
2018-09-10T01:27:30.170Z,11.77
2018-09-10T01:28:30.394Z,11.72
2018-09-10T01:29:30.623Z,11.70
2018-09-10T01:30:30.851Z,11.69
2018-09-10T01:31:31.081Z,11.60
2018-09-10T01:32:31.307Z,11.59
2018-09-10T01:33:31.536Z,11.68
2018-09-10T01:34:31.775Z,11.77
2018-09-10T01:35:31.989Z,11.83
2018-09-10T01:36:32.218Z,11.88
2018-09-10T01:37:32.445Z,11.94
2018-09-10T01:38:32.672Z,11.99
2018-09-10T01:39:32.901Z,11.94
2018-09-10T01:40:33.129Z,11.94
2018-09-10T01:41:33.353Z,11.91
2018-09-10T01:42:33.581Z,11.91
2018-09-10T01:43:33.813Z,11.94
2018-09-10T01:44:34.041Z,11.99
2018-09-10T01:45:34.265Z,11.99
2018-09-10T01:46:34.494Z,11.87
2018-09-10T01:47:34.721Z,11.84
2018-09-10T01:48:34.945Z,11.94
2018-09-10T01:49:35.170Z,11.90
2018-09-10T01:50:35.400Z,11.88
2018-09-10T01:51:35.627Z,11.95
2018-09-10T01:52:35.861Z,11.87
2018-09-10T01:53:36.089Z,11.88
2018-09-10T01:54:36.307Z,11.94
2018-09-10T01:55:36.534Z,11.88
2018-09-10T01:56:36.762Z,11.86
2018-09-10T01:57:36.991Z,11.97
2018-09-10T01:58:37.220Z,11.83
2018-09-10T01:59:37.448Z,11.87
2018-09-10T02:00:37.676Z,11.99
2018-09-10T02:01:37.904Z,11.91
2018-09-10T02:02:38.131Z,11.90
2018-09-10T02:03:38.359Z,11.86
2018-09-10T02:04:38.586Z,11.84
2018-09-10T02:05:38.814Z,11.87
2018-09-10T02:06:39.043Z,11.81
2018-09-10T02:07:39.271Z,11.70
2018-09-10T02:08:39.497Z,11.62
2018-09-10T02:09:39.730Z,11.55
2018-09-10T02:10:39.955Z,11.54
2018-09-10T02:11:40.182Z,11.41
2018-09-10T02:12:40.411Z,11.45
2018-09-10T02:13:40.637Z,11.36
2018-09-10T02:14:40.864Z,11.35
2018-09-10T02:15:41.093Z,11.40
2018-09-10T02:16:41.320Z,11.37
2018-09-10T02:17:41.539Z,11.30
2018-09-10T02:18:41.765Z,11.43
2018-09-10T02:19:41.990Z,11.44
2018-09-10T02:20:42.215Z,11.33
2018-09-10T02:21:42.443Z,11.36
2018-09-10T02:22:42.672Z,11.43
2018-09-10T02:23:42.933Z,11.48
2018-09-10T02:24:43.131Z,11.52
2018-09-10T02:25:43.357Z,11.59
2018-09-10T02:26:43.584Z,11.59
2018-09-10T02:27:43.840Z,11.68
2018-09-10T02:28:44.045Z,11.69
2018-09-10T02:29:44.269Z,11.68
2018-09-10T02:30:44.498Z,11.62
2018-09-10T02:31:44.725Z,11.72
2018-09-10T02:32:44.951Z,11.77
2018-09-10T02:33:45.177Z,11.68
2018-09-10T02:34:45.404Z,11.70
2018-09-10T02:35:45.634Z,11.70
2018-09-10T02:36:45.860Z,11.66
2018-09-10T02:37:46.091Z,11.77
2018-09-10T02:38:46.315Z,11.70
2018-09-10T02:39:46.558Z,11.55
2018-09-10T02:40:46.774Z,11.59
2018-09-10T02:41:47.001Z,11.47
2018-09-10T02:42:47.225Z,11.47
2018-09-10T02:43:47.453Z,11.43
2018-09-10T02:44:47.680Z,11.33
2018-09-10T02:45:47.906Z,11.36
2018-09-10T02:46:48.140Z,11.30
2018-09-10T02:47:48.369Z,11.40
2018-09-10T02:48:48.604Z,11.37
2018-09-10T02:49:48.817Z,11.48
2018-09-10T02:50:49.043Z,11.43
2018-09-10T02:51:49.272Z,11.37
2018-09-10T02:52:49.497Z,11.41
2018-09-10T02:53:49.725Z,11.37
2018-09-10T02:54:49.951Z,11.36
2018-09-10T02:55:50.179Z,11.26
2018-09-10T02:56:50.407Z,11.32
2018-09-10T02:57:50.636Z,11.27
2018-09-10T02:58:50.863Z,11.14
2018-09-10T02:59:51.092Z,11.18
2018-09-10T03:00:51.316Z,11.00
2018-09-10T03:01:51.543Z,11.15
2018-09-10T03:02:51.773Z,11.12
2018-09-10T03:03:52.000Z,11.14
2018-09-10T03:04:52.230Z,11.07
2018-09-10T03:05:52.457Z,11.04
2018-09-10T03:06:52.686Z,11.04
2018-09-10T03:07:52.925Z,10.97
2018-09-10T03:08:53.154Z,11.02
2018-09-10T03:09:53.382Z,11.11
2018-09-10T03:10:53.607Z,11.14
2018-09-10T03:11:53.837Z,11.11
2018-09-10T03:12:54.062Z,11.04
2018-09-10T03:13:54.294Z,11.02
2018-09-10T03:14:54.518Z,11.08
2018-09-10T03:15:54.746Z,11.00
2018-09-10T03:16:54.975Z,11.02
2018-09-10T03:17:55.216Z,10.94
2018-09-10T03:18:55.433Z,11.00
2018-09-10T03:19:55.660Z,11.12
2018-09-10T03:20:55.886Z,11.02
2018-09-10T03:21:56.114Z,10.99
2018-09-10T03:22:56.344Z,11.02
2018-09-10T03:23:56.626Z,11.07
2018-09-10T03:24:56.800Z,10.94
2018-09-10T03:25:57.028Z,10.96
2018-09-10T03:26:57.257Z,10.99
2018-09-10T03:27:57.487Z,10.82
2018-09-10T03:28:57.712Z,10.90
2018-09-10T03:29:57.939Z,10.87
2018-09-10T03:30:58.168Z,10.82
2018-09-10T03:31:58.397Z,10.86
2018-09-10T03:32:58.623Z,10.90
2018-09-10T03:33:58.856Z,10.93
2018-09-10T03:34:59.085Z,10.99
2018-09-10T03:35:59.310Z,10.97
2018-09-10T03:36:59.536Z,11.00
2018-09-10T03:37:59.764Z,11.02
2018-09-10T03:38:59.992Z,11.00
2018-09-10T03:40:00.217Z,11.08
2018-09-10T03:41:00.446Z,10.99
2018-09-10T03:42:00.674Z,11.04
2018-09-10T03:43:00.895Z,11.05
2018-09-10T03:44:01.122Z,11.02
2018-09-10T03:45:01.351Z,10.97
2018-09-10T03:46:01.577Z,11.02
2018-09-10T03:47:01.804Z,10.94
2018-09-10T03:48:02.033Z,11.00
2018-09-10T03:49:02.256Z,11.04
2018-09-10T03:50:02.486Z,10.84
2018-09-10T03:51:02.708Z,10.90
2018-09-10T03:52:02.939Z,10.84
2018-09-10T03:53:03.165Z,10.86
2018-09-10T03:54:03.393Z,10.79
2018-09-10T03:55:03.622Z,10.78
2018-09-10T03:56:03.847Z,10.79
2018-09-10T03:57:04.071Z,10.75
2018-09-10T03:58:04.293Z,10.69
2018-09-10T03:59:04.525Z,10.74
2018-09-10T04:00:04.747Z,10.72
2018-09-10T04:01:04.974Z,10.75
2018-09-10T04:02:05.204Z,10.76
2018-09-10T04:03:05.429Z,10.74
2018-09-10T04:04:05.658Z,10.71
2018-09-10T04:05:05.885Z,10.74
2018-09-10T04:06:06.120Z,10.86
2018-09-10T04:07:06.341Z,10.86
2018-09-10T04:08:06.569Z,10.81
2018-09-10T04:09:06.791Z,10.79
2018-09-10T04:10:07.019Z,10.89
2018-09-10T04:11:07.246Z,10.86
2018-09-10T04:12:07.475Z,10.90
2018-09-10T04:13:07.705Z,10.82
2018-09-10T04:14:07.933Z,10.90
2018-09-10T04:15:08.214Z,10.94
2018-09-10T04:16:08.384Z,10.90
2018-09-10T04:17:08.622Z,10.75
2018-09-10T04:18:08.837Z,10.72
2018-09-10T04:19:09.068Z,10.69
2018-09-10T04:20:09.293Z,10.64
2018-09-10T04:21:09.518Z,10.61
2018-09-10T04:22:09.748Z,10.63
2018-09-10T04:23:09.974Z,10.67
2018-09-10T04:24:10.203Z,10.67
2018-09-10T04:25:10.431Z,10.56
2018-09-10T04:26:10.658Z,10.54
2018-09-10T04:27:10.886Z,10.56
2018-09-10T04:28:11.111Z,10.53
2018-09-10T04:29:11.340Z,10.51
2018-09-10T04:30:11.571Z,10.53
2018-09-10T04:31:11.797Z,10.51
2018-09-10T04:32:12.026Z,10.49
2018-09-10T04:33:12.252Z,10.38
2018-09-10T04:34:12.481Z,10.51
2018-09-10T04:35:12.714Z,10.42
2018-09-10T04:36:12.988Z,10.40
2018-09-10T04:37:13.168Z,10.35
2018-09-10T04:38:13.397Z,10.40
2018-09-10T04:39:13.621Z,10.41
2018-09-10T04:40:13.852Z,10.51
2018-09-10T04:41:14.083Z,10.49
2018-09-10T04:42:14.361Z,10.48
2018-09-10T04:43:14.539Z,10.59
2018-09-10T04:44:14.758Z,10.53
2018-09-10T04:45:14.992Z,10.64
2018-09-10T04:46:15.225Z,10.75
2018-09-10T04:47:15.450Z,10.75
2018-09-10T04:48:15.677Z,10.81
2018-09-10T04:49:15.904Z,10.82
2018-09-10T04:50:16.129Z,10.96
2018-09-10T04:51:16.359Z,10.96
2018-09-10T04:52:16.585Z,10.92
2018-09-10T04:53:16.813Z,10.97
2018-09-10T04:54:17.043Z,10.99
2018-09-10T04:55:17.270Z,10.99
2018-09-10T04:56:17.503Z,11.02
2018-09-10T04:57:17.729Z,10.99
2018-09-10T04:58:17.955Z,11.14
2018-09-10T04:59:18.185Z,11.05
2018-09-10T05:00:18.415Z,11.12
2018-09-10T05:01:18.642Z,11.19
2018-09-10T05:02:18.867Z,11.18
2018-09-10T05:03:19.095Z,11.22
2018-09-10T05:04:19.382Z,11.25
2018-09-10T05:05:19.549Z,11.15
2018-09-10T05:06:19.773Z,11.22
2018-09-10T05:07:20.001Z,11.30
2018-09-10T05:08:20.230Z,11.25
2018-09-10T05:09:20.459Z,11.18
2018-09-10T05:10:20.685Z,11.33
2018-09-10T05:11:20.915Z,11.33
2018-09-10T05:12:21.141Z,11.32
2018-09-10T05:13:21.370Z,11.35
2018-09-10T05:14:21.597Z,11.35
2018-09-10T05:15:21.824Z,11.40
2018-09-10T05:16:22.050Z,11.44
2018-09-10T05:17:22.281Z,11.43
2018-09-10T05:18:22.506Z,11.43
2018-09-10T05:19:22.730Z,11.35
2018-09-10T05:20:22.958Z,11.36
2018-09-10T05:21:23.184Z,11.50
2018-09-10T05:22:23.416Z,11.50
2018-09-10T05:23:23.642Z,11.72
2018-09-10T05:24:23.868Z,11.90
2018-09-10T05:25:24.095Z,11.90
2018-09-10T05:26:24.323Z,12.00
2018-09-10T05:27:24.548Z,12.06
2018-09-10T05:28:24.779Z,12.10
2018-09-10T05:29:25.009Z,12.15
2018-09-10T05:30:25.237Z,12.17
2018-09-10T05:31:25.466Z,12.10
2018-09-10T05:32:25.692Z,12.28
2018-09-10T05:33:25.921Z,12.62
2018-09-10T05:34:26.151Z,12.54
2018-09-10T05:35:26.375Z,12.85
2018-09-10T05:36:26.603Z,13.28
2018-09-10T05:37:26.833Z,13.62
2018-09-10T05:38:27.062Z,13.72
2018-09-10T05:39:27.293Z,13.75
2018-09-10T05:40:27.519Z,13.77
2018-09-10T05:41:27.777Z,13.92
2018-09-10T05:42:27.974Z,14.17
2018-09-10T05:43:28.202Z,14.23
2018-09-10T05:44:28.438Z,14.05
2018-09-10T05:45:28.663Z,14.00
2018-09-10T05:46:28.890Z,14.23
2018-09-10T05:47:29.150Z,14.54
2018-09-10T05:48:29.345Z,14.82
2018-09-10T05:49:29.573Z,15.14
2018-09-10T05:50:29.805Z,15.43
2018-09-10T05:51:30.033Z,15.57
2018-09-10T05:52:30.263Z,15.46
2018-09-10T05:53:30.496Z,15.59
2018-09-10T05:54:30.720Z,15.57
2018-09-10T05:55:30.967Z,15.54
2018-09-10T05:56:31.180Z,15.58
2018-09-10T05:57:31.411Z,15.79
2018-09-10T05:58:31.639Z,15.91
2018-09-10T05:59:31.871Z,15.84
2018-09-10T06:00:32.103Z,15.82
2018-09-10T06:01:32.332Z,15.72
2018-09-10T06:02:32.560Z,15.79
2018-09-10T06:03:32.791Z,15.90
2018-09-10T06:04:33.022Z,15.55
2018-09-10T06:05:33.252Z,15.42
2018-09-10T06:06:33.504Z,15.39
2018-09-10T06:07:33.714Z,15.17
2018-09-10T06:08:33.999Z,14.70
2018-09-10T06:09:34.166Z,14.66
2018-09-10T06:10:34.449Z,14.91
2018-09-10T06:11:34.626Z,15.25
2018-09-10T06:12:34.861Z,15.36
2018-09-10T06:13:35.086Z,15.62
2018-09-10T06:14:35.316Z,15.58
2018-09-10T06:15:35.550Z,15.82
2018-09-10T06:16:35.847Z,16.12
2018-09-10T06:17:36.013Z,15.76
2018-09-10T06:18:36.242Z,15.98
2018-09-10T06:19:36.475Z,16.47
2018-09-10T06:20:36.701Z,16.86
2018-09-10T06:21:36.929Z,17.15
2018-09-10T06:22:37.161Z,17.42
2018-09-10T06:23:37.390Z,17.71
2018-09-10T06:24:37.621Z,17.52
2018-09-10T06:25:37.849Z,17.83
2018-09-10T06:26:38.082Z,18.07
2018-09-10T06:27:38.313Z,18.22
2018-09-10T06:28:38.543Z,18.23
2018-09-10T06:29:38.772Z,18.35
2018-09-10T06:30:39.014Z,18.60
2018-09-10T06:31:39.237Z,18.66
2018-09-10T06:32:39.467Z,18.73
2018-09-10T06:33:39.697Z,18.99
2018-09-10T06:34:39.931Z,19.09
2018-09-10T06:35:40.164Z,19.08
2018-09-10T06:36:40.394Z,19.22
2018-09-10T06:37:40.628Z,19.14
2018-09-10T06:38:40.859Z,19.19
2018-09-10T06:39:41.090Z,19.04
2018-09-10T06:40:41.321Z,18.92
2018-09-10T06:41:41.552Z,18.98
2018-09-10T06:42:41.780Z,18.96
2018-09-10T06:43:42.015Z,18.99
2018-09-10T06:44:42.247Z,18.96
2018-09-10T06:45:42.475Z,18.59
2018-09-10T06:46:42.706Z,18.47
2018-09-10T06:47:42.979Z,18.66
2018-09-10T06:48:43.174Z,18.34
2018-09-10T06:49:43.404Z,18.33
2018-09-10T06:50:43.636Z,18.40
2018-09-10T06:51:43.867Z,18.56
2018-09-10T06:52:44.100Z,18.49
2018-09-10T06:53:44.331Z,18.31
2018-09-10T06:54:44.567Z,18.25
2018-09-10T06:55:44.791Z,18.26
2018-09-10T06:56:45.024Z,18.10
2018-09-10T06:57:45.255Z,18.38
2018-09-10T06:58:45.488Z,18.23
2018-09-10T06:59:45.720Z,18.23
2018-09-10T07:00:45.951Z,18.49
2018-09-10T07:01:46.184Z,18.35
2018-09-10T07:02:46.415Z,18.47
2018-09-10T07:03:46.648Z,18.29
2018-09-10T07:04:46.879Z,18.28
2018-09-10T07:05:47.112Z,18.05
2018-09-10T07:06:47.342Z,18.10
2018-09-10T07:07:47.573Z,18.01
2018-09-10T07:08:47.808Z,18.03
2018-09-10T07:09:48.048Z,18.13
2018-09-10T07:10:48.272Z,18.26
2018-09-10T07:11:48.503Z,18.33
2018-09-10T07:12:48.740Z,18.25
2018-09-10T07:13:48.963Z,18.35
2018-09-10T07:14:49.193Z,18.55
2018-09-10T07:15:49.422Z,18.50
2018-09-10T07:16:49.654Z,18.53
2018-09-10T07:17:49.888Z,18.59
2018-09-10T07:18:50.287Z,18.63
2018-09-10T07:19:50.347Z,18.50
2018-09-10T07:20:50.579Z,18.56
2018-09-10T07:21:50.810Z,18.52
2018-09-10T07:22:51.040Z,18.45
2018-09-10T07:23:51.270Z,18.44
2018-09-10T07:24:51.500Z,18.43
2018-09-10T07:25:51.731Z,18.33
2018-09-10T07:26:51.962Z,18.20
2018-09-10T07:27:52.198Z,18.20
2018-09-10T07:28:52.422Z,18.11
2018-09-10T07:29:52.658Z,18.03
2018-09-10T07:30:52.888Z,17.97
2018-09-10T07:31:53.121Z,17.98
2018-09-10T07:32:53.345Z,17.89
2018-09-10T07:33:53.579Z,18.03
2018-09-10T07:34:53.808Z,18.11
2018-09-10T07:35:54.039Z,18.07
2018-09-10T07:36:54.271Z,18.13
2018-09-10T07:37:54.503Z,18.25
2018-09-10T07:38:54.732Z,18.37
2018-09-10T07:39:54.965Z,18.35
2018-09-10T07:40:55.198Z,18.44
2018-09-10T07:41:55.429Z,18.43
2018-09-10T07:42:55.662Z,18.49
2018-09-10T07:43:56.021Z,18.53
2018-09-10T07:44:56.121Z,18.53
2018-09-10T07:45:56.354Z,18.74
2018-09-10T07:46:56.587Z,18.62
2018-09-10T07:47:56.816Z,18.70
2018-09-10T07:48:57.057Z,18.78
2018-09-10T07:49:57.281Z,18.78
2018-09-10T07:50:57.515Z,18.92
2018-09-10T07:51:57.744Z,18.96
2018-09-10T07:52:57.974Z,19.04
2018-09-10T07:53:58.206Z,19.14
2018-09-10T07:54:58.443Z,19.21
2018-09-10T07:55:58.674Z,19.19
2018-09-10T07:56:58.907Z,19.18
2018-09-10T07:57:59.137Z,19.24
2018-09-10T07:58:59.368Z,19.24
2018-09-10T07:59:59.599Z,19.27
2018-09-10T08:00:59.832Z,19.36
2018-09-10T08:02:00.062Z,19.31
2018-09-10T08:03:00.353Z,19.34
2018-09-10T08:04:00.524Z,19.37
2018-09-10T08:05:00.756Z,19.33
2018-09-10T08:06:00.989Z,19.40
2018-09-10T08:07:01.219Z,19.39
2018-09-10T08:08:01.451Z,19.44
2018-09-10T08:09:01.685Z,19.44
2018-09-10T08:10:01.912Z,19.44
2018-09-10T08:11:02.144Z,19.44
2018-09-10T08:12:02.377Z,19.49
2018-09-10T08:13:02.610Z,19.62
2018-09-10T08:14:02.837Z,19.64
2018-09-10T08:15:03.685Z,19.66
2018-09-10T08:16:03.289Z,19.79
2018-09-10T08:17:04.188Z,19.85
2018-09-10T08:18:03.793Z,19.77
2018-09-10T08:19:04.026Z,19.92
2018-09-10T08:20:04.258Z,20.04
2018-09-10T08:21:04.504Z,20.09
2018-09-10T08:22:04.741Z,20.11
2018-09-10T08:23:04.973Z,20.19
2018-09-10T08:24:05.286Z,20.32
2018-09-10T08:25:05.487Z,20.36
2018-09-10T08:26:05.689Z,20.56
2018-09-10T08:27:05.923Z,20.44
2018-09-10T08:28:06.688Z,20.48
2018-09-10T08:29:06.420Z,20.58
2018-09-10T08:30:06.650Z,20.60
2018-09-10T08:31:06.882Z,20.67
2018-09-10T08:32:07.115Z,20.78
2018-09-10T08:33:08.188Z,20.99
2018-09-10T08:34:07.544Z,20.97
2018-09-10T08:35:07.774Z,21.11
2018-09-10T08:36:08.009Z,21.12
2018-09-10T08:37:08.239Z,21.18
2018-09-10T08:38:08.472Z,21.35
2018-09-10T08:39:08.702Z,21.42
2018-09-10T08:40:08.935Z,21.55
2018-09-10T08:41:09.166Z,21.45
2018-09-10T08:42:09.399Z,21.48
2018-09-10T08:43:09.631Z,21.51
2018-09-10T08:44:09.863Z,21.52
2018-09-10T08:45:10.098Z,21.54
2018-09-10T08:46:10.324Z,21.66
2018-09-10T08:47:10.555Z,21.67
2018-09-10T08:48:10.851Z,21.73
2018-09-10T08:49:11.024Z,21.73
2018-09-10T08:50:11.264Z,21.77
2018-09-10T08:51:11.490Z,21.89
2018-09-10T08:52:11.741Z,21.89
2018-09-10T08:53:11.974Z,21.89
2018-09-10T08:54:12.289Z,21.89
2018-09-10T08:55:12.551Z,21.83
2018-09-10T08:56:12.985Z,22.00
2018-09-10T08:57:12.903Z,21.99
2018-09-10T08:58:13.137Z,22.08
2018-09-10T08:59:13.370Z,22.04
2018-09-10T09:00:13.604Z,22.10
2018-09-10T09:01:13.832Z,22.14
2018-09-10T09:02:14.064Z,22.25
2018-09-10T09:03:14.297Z,22.23
2018-09-10T09:04:14.529Z,22.22
2018-09-10T09:05:14.762Z,22.33
2018-09-10T09:06:15.043Z,22.25
2018-09-10T09:07:15.226Z,22.32
2018-09-10T09:08:15.458Z,22.36
2018-09-10T09:09:15.713Z,22.39
2018-09-10T09:10:15.925Z,22.47
2018-09-10T09:11:16.193Z,22.50
2018-09-10T09:12:16.423Z,22.62
2018-09-10T09:13:16.658Z,22.59
2018-09-10T09:14:16.886Z,22.70
2018-09-10T09:15:17.118Z,22.65
2018-09-10T09:16:17.353Z,22.80
2018-09-10T09:17:17.591Z,22.84
2018-09-10T09:18:17.819Z,22.91
2018-09-10T09:19:18.055Z,22.93
2018-09-10T09:20:18.289Z,23.03
2018-09-10T09:21:18.518Z,23.09
2018-09-10T09:22:18.751Z,23.08
2018-09-10T09:23:19.142Z,23.10
2018-09-10T09:24:19.219Z,23.23
2018-09-10T09:25:19.450Z,23.32
2018-09-10T09:26:19.687Z,23.50
2018-09-10T09:27:19.917Z,23.41
2018-09-10T09:28:20.149Z,23.31
2018-09-10T09:29:20.382Z,23.40
2018-09-10T09:30:20.671Z,23.39
2018-09-10T09:31:20.849Z,23.46
2018-09-10T09:32:21.084Z,23.55
2018-09-10T09:33:21.321Z,23.63
2018-09-10T09:34:21.549Z,23.74
2018-09-10T09:35:21.783Z,23.77
2018-09-10T09:36:22.118Z,23.69
2018-09-10T09:37:22.252Z,23.74
2018-09-10T09:38:22.484Z,23.88
2018-09-10T09:39:22.718Z,23.83
2018-09-10T09:40:22.954Z,23.78
2018-09-10T09:41:23.193Z,23.68
2018-09-10T09:42:23.419Z,23.66
2018-09-10T09:43:23.710Z,23.63
2018-09-10T09:44:23.884Z,23.73
2018-09-10T09:45:24.118Z,23.88
2018-09-10T09:46:24.352Z,23.76
2018-09-10T09:47:24.584Z,23.81
2018-09-10T09:48:24.817Z,23.66
2018-09-10T09:49:25.050Z,23.76
2018-09-10T09:50:25.283Z,23.68
2018-09-10T09:51:25.517Z,23.80
2018-09-10T09:52:25.748Z,23.71
2018-09-10T09:53:25.982Z,23.74
2018-09-10T09:54:26.217Z,23.56
2018-09-10T09:55:26.452Z,23.63
2018-09-10T09:56:26.685Z,23.73
2018-09-10T09:57:26.917Z,23.74
2018-09-10T09:58:27.151Z,23.80
2018-09-10T09:59:27.385Z,23.92
2018-09-10T10:00:27.618Z,24.06
2018-09-10T10:01:27.851Z,24.20
2018-09-10T10:02:28.087Z,24.20
2018-09-10T10:03:28.317Z,24.20
2018-09-10T10:04:28.552Z,24.23
2018-09-10T10:05:28.780Z,24.32
2018-09-10T10:06:29.014Z,24.36
2018-09-10T10:07:29.250Z,24.39
2018-09-10T10:08:29.484Z,24.38
2018-09-10T10:09:29.718Z,24.40
2018-09-10T10:10:29.952Z,24.51
2018-09-10T10:11:30.205Z,24.55
2018-09-10T10:12:30.489Z,24.58
2018-09-10T10:13:30.656Z,24.73
2018-09-10T10:14:30.891Z,24.78
2018-09-10T10:15:31.128Z,24.89
2018-09-10T10:16:31.443Z,24.81
2018-09-10T10:17:31.596Z,24.78
2018-09-10T10:18:31.830Z,24.84
2018-09-10T10:19:32.066Z,24.95
2018-09-10T10:20:32.362Z,24.85
2018-09-10T10:21:32.545Z,24.95
2018-09-10T10:22:32.778Z,24.91
2018-09-10T10:23:33.013Z,24.92
2018-09-10T10:24:33.248Z,24.91
2018-09-10T10:25:33.483Z,24.85
2018-09-10T10:26:33.718Z,24.95
2018-09-10T10:27:33.963Z,24.98
2018-09-10T10:28:34.196Z,25.04
2018-09-10T10:29:34.429Z,25.14
2018-09-10T10:30:34.666Z,25.31
2018-09-10T10:31:34.899Z,25.32
2018-09-10T10:32:35.133Z,25.35
2018-09-10T10:33:35.390Z,25.38
2018-09-10T10:34:35.622Z,25.48
2018-09-10T10:35:35.855Z,25.54
2018-09-10T10:36:36.089Z,25.73
2018-09-10T10:37:36.325Z,25.72
2018-09-10T10:38:36.559Z,25.91
2018-09-10T10:39:36.795Z,25.87
2018-09-10T10:40:37.027Z,25.96
2018-09-10T10:41:37.260Z,26.09
2018-09-10T10:42:37.495Z,26.31
2018-09-10T10:43:37.730Z,26.43
2018-09-10T10:44:37.963Z,26.52
2018-09-10T10:45:38.198Z,26.60
2018-09-10T10:46:38.433Z,26.60
2018-09-10T10:47:38.670Z,26.74
2018-09-10T10:48:38.902Z,26.73
2018-09-10T10:49:39.140Z,26.77
2018-09-10T10:50:39.375Z,26.84
2018-09-10T10:51:39.611Z,26.81
2018-09-10T10:52:39.844Z,26.83
2018-09-10T10:53:40.104Z,26.88
2018-09-10T10:54:40.318Z,26.83
2018-09-10T10:55:40.558Z,26.88
2018-09-10T10:56:40.790Z,26.93
2018-09-10T10:57:41.026Z,27.10
2018-09-10T10:58:41.268Z,27.14
2018-09-10T10:59:41.504Z,27.12
2018-09-10T11:00:41.740Z,27.27
2018-09-10T11:01:41.978Z,27.32
2018-09-10T11:02:42.210Z,27.32
2018-09-10T11:03:42.445Z,27.37
2018-09-10T11:04:42.684Z,27.47
2018-09-10T11:05:42.912Z,27.45
2018-09-10T11:06:43.145Z,27.51
2018-09-10T11:07:43.384Z,27.40
2018-09-10T11:08:43.617Z,27.30
2018-09-10T11:09:43.855Z,27.37
2018-09-10T11:10:44.091Z,27.35
2018-09-10T11:11:44.324Z,27.33
2018-09-10T11:12:44.564Z,27.40
2018-09-10T11:13:44.795Z,27.17
2018-09-10T11:14:45.031Z,27.26
2018-09-10T11:15:45.266Z,27.15
2018-09-10T11:16:45.575Z,27.10
2018-09-10T11:17:45.735Z,27.03
2018-09-10T11:18:45.973Z,27.07
2018-09-10T11:19:46.207Z,27.07
2018-09-10T11:20:46.442Z,26.97
2018-09-10T11:21:46.683Z,27.12
2018-09-10T11:22:46.914Z,27.12
2018-09-10T11:23:47.150Z,27.20
2018-09-10T11:24:47.387Z,27.20
2018-09-10T11:25:47.619Z,27.33
2018-09-10T11:26:47.856Z,27.45
2018-09-10T11:27:48.189Z,27.51
2018-09-10T11:28:48.321Z,27.67
2018-09-10T11:29:48.554Z,27.70
2018-09-10T11:30:48.792Z,27.82
2018-09-10T11:31:49.025Z,27.82
2018-09-10T11:32:49.262Z,27.86
2018-09-10T11:33:49.497Z,27.86
2018-09-10T11:34:49.736Z,27.86
2018-09-10T11:35:49.967Z,27.68
2018-09-10T11:36:50.209Z,27.78
2018-09-10T11:37:50.441Z,27.80
2018-09-10T11:38:50.676Z,27.86
2018-09-10T11:39:50.925Z,27.89
2018-09-10T11:40:51.160Z,27.89
2018-09-10T11:41:51.394Z,28.02
2018-09-10T11:42:51.630Z,27.89
2018-09-10T11:43:51.866Z,27.89
2018-09-10T11:44:52.105Z,27.95
2018-09-10T11:45:52.341Z,27.98
2018-09-10T11:46:52.578Z,28.02
2018-09-10T11:47:52.814Z,28.02
2018-09-10T11:48:53.050Z,27.98
2018-09-10T11:49:53.287Z,28.00
2018-09-10T11:50:53.521Z,28.00
2018-09-10T11:51:53.758Z,27.85
2018-09-10T11:52:53.994Z,27.87
2018-09-10T11:53:54.230Z,27.87
2018-09-10T11:54:54.465Z,27.89
2018-09-10T11:55:54.703Z,27.93
2018-09-10T11:56:54.940Z,28.02
2018-09-10T11:57:55.175Z,27.98
2018-09-10T11:58:55.413Z,28.11
2018-09-10T11:59:55.648Z,28.17
2018-09-10T12:00:55.883Z,28.22
2018-09-10T12:01:56.122Z,28.22
2018-09-10T12:02:56.363Z,28.33
2018-09-10T12:03:56.600Z,28.19
2018-09-10T12:04:56.836Z,28.14
2018-09-10T12:05:57.073Z,28.26
2018-09-10T12:06:57.311Z,28.26
2018-09-10T12:07:57.545Z,28.14
2018-09-10T12:08:57.784Z,28.14
2018-09-10T12:09:58.020Z,28.23
2018-09-10T12:10:58.257Z,28.23
2018-09-10T12:11:58.489Z,28.26
2018-09-10T12:12:58.725Z,28.29
2018-09-10T12:13:58.964Z,28.23
2018-09-10T12:14:59.197Z,28.22
2018-09-10T12:15:59.433Z,28.17
2018-09-10T12:16:59.668Z,28.12
2018-09-10T12:17:59.905Z,28.25
2018-09-10T12:19:00.139Z,28.41
2018-09-10T12:20:00.379Z,28.37
2018-09-10T12:21:00.616Z,28.37
2018-09-10T12:22:00.853Z,28.38
2018-09-10T12:23:01.090Z,28.32
2018-09-10T12:24:01.325Z,28.22
2018-09-10T12:25:01.560Z,28.29
2018-09-10T12:26:01.794Z,28.33
2018-09-10T12:27:02.032Z,28.38
2018-09-10T12:28:02.270Z,28.32
2018-09-10T12:29:02.504Z,28.35
2018-09-10T12:30:02.740Z,28.33
2018-09-10T12:31:02.977Z,28.29
2018-09-10T12:32:03.213Z,28.37
2018-09-10T12:33:03.449Z,28.41
2018-09-10T12:34:03.684Z,28.47
2018-09-10T12:35:03.918Z,28.59
2018-09-10T12:36:04.154Z,28.52
2018-09-10T12:37:04.393Z,28.52
2018-09-10T12:38:04.629Z,28.64
2018-09-10T12:39:04.866Z,28.75
2018-09-10T12:40:05.101Z,28.85
2018-09-10T12:41:05.337Z,28.86
2018-09-10T12:42:05.574Z,28.93
2018-09-10T12:43:05.812Z,28.85
2018-09-10T12:44:06.045Z,28.94
2018-09-10T12:45:06.281Z,28.97
2018-09-10T12:46:06.516Z,29.01
2018-09-10T12:47:06.754Z,28.97
2018-09-10T12:48:06.987Z,28.94
2018-09-10T12:49:07.220Z,28.88
2018-09-10T12:50:07.458Z,28.78
2018-09-10T12:51:07.694Z,28.88
2018-09-10T12:52:07.929Z,28.94
2018-09-10T12:53:08.168Z,28.89
2018-09-10T12:54:08.405Z,28.89
2018-09-10T12:55:08.641Z,28.91